createdAt,value
2017-08-12T00:00:14.873Z,94.36
2017-08-12T00:02:49.694Z,93.93
2017-08-12T00:05:24.527Z,93.83
2017-08-12T00:07:59.303Z,93.56
2017-08-12T00:10:34.140Z,93.77
2017-08-12T00:13:08.897Z,93.97
2017-08-12T00:15:43.597Z,93.96
2017-08-12T00:18:18.476Z,94.02
2017-08-12T00:20:53.179Z,94.15
2017-08-12T00:23:27.921Z,94.11
2017-08-12T00:26:03.759Z,94.32
2017-08-12T00:28:38.307Z,94.38
2017-08-12T00:31:13.183Z,94.39
2017-08-12T00:33:47.909Z,94.48
2017-08-12T00:36:23.699Z,94.53
2017-08-12T00:38:58.490Z,94.63
2017-08-12T00:41:34.180Z,94.73
2017-08-12T00:44:08.482Z,94.83
2017-08-12T00:46:43.560Z,94.89
2017-08-12T00:49:18.404Z,95.13
2017-08-12T00:51:54.003Z,95.48
2017-08-12T00:54:28.780Z,95.64
2017-08-12T00:57:03.462Z,95.77
2017-08-12T00:59:37.820Z,95.75
2017-08-12T01:02:12.663Z,95.63
2017-08-12T01:04:47.304Z,95.70
2017-08-12T01:07:22.567Z,95.76
2017-08-12T01:09:57.329Z,95.75
2017-08-12T01:12:32.022Z,95.82
2017-08-12T01:15:06.702Z,95.76
2017-08-12T01:17:41.406Z,96.03
2017-08-12T01:20:16.140Z,96.01
2017-08-12T01:22:50.887Z,95.94
2017-08-12T01:25:25.691Z,95.86
2017-08-12T01:28:00.452Z,96.01
2017-08-12T01:30:35.079Z,96.23
2017-08-12T01:33:09.775Z,96.20
2017-08-12T01:35:44.488Z,96.07
2017-08-12T01:38:19.331Z,96.11
2017-08-12T01:40:54.095Z,96.06
2017-08-12T01:43:28.782Z,95.87
2017-08-12T01:46:03.598Z,95.80
2017-08-12T01:48:38.415Z,95.64
2017-08-12T01:51:13.202Z,95.81
2017-08-12T01:53:48.027Z,95.95
2017-08-12T01:56:22.735Z,95.82
2017-08-12T01:58:57.483Z,95.76
2017-08-12T02:01:32.315Z,95.96
2017-08-12T02:04:07.111Z,95.79
2017-08-12T02:06:41.852Z,95.67
2017-08-12T02:09:16.764Z,95.77
2017-08-12T02:11:51.868Z,95.90
2017-08-12T02:14:26.383Z,95.97
2017-08-12T02:17:02.087Z,96.03
2017-08-12T02:19:36.700Z,96.14
2017-08-12T02:22:11.459Z,96.09
2017-08-12T02:24:46.187Z,96.00
2017-08-12T02:27:21.019Z,96.04
2017-08-12T02:29:56.815Z,96.16
2017-08-12T02:32:31.441Z,96.39
2017-08-12T02:35:06.247Z,96.53
2017-08-12T02:37:41.163Z,96.66
2017-08-12T02:40:15.705Z,96.39
2017-08-12T02:42:51.683Z,96.58
2017-08-12T02:45:26.263Z,96.61
2017-08-12T02:48:01.060Z,96.68
2017-08-12T02:50:36.840Z,96.69
2017-08-12T02:53:11.416Z,96.66
2017-08-12T02:55:46.136Z,96.77
2017-08-12T02:58:21.859Z,97.10
2017-08-12T03:00:56.507Z,97.32
2017-08-12T03:03:31.279Z,97.27
2017-08-12T03:06:06.040Z,97.39
2017-08-12T03:08:41.999Z,97.35
2017-08-12T03:11:16.801Z,97.04
2017-08-12T03:13:51.535Z,96.86
2017-08-12T03:16:26.299Z,97.00
2017-08-12T03:19:01.039Z,97.03
2017-08-12T03:21:35.760Z,97.07
2017-08-12T03:24:10.523Z,97.19
2017-08-12T03:26:45.294Z,96.94
2017-08-12T03:29:21.023Z,96.99
2017-08-12T03:31:55.695Z,97.18
2017-08-12T03:34:30.439Z,96.91
2017-08-12T03:37:05.088Z,97.04
2017-08-12T03:39:39.728Z,96.99
2017-08-12T03:42:14.492Z,96.90
2017-08-12T03:44:49.328Z,96.99
2017-08-12T03:47:24.067Z,96.98
2017-08-12T03:49:58.691Z,97.03
2017-08-12T03:52:33.295Z,97.37
2017-08-12T03:55:08.119Z,97.39
2017-08-12T03:57:42.751Z,97.22
2017-08-12T04:00:17.289Z,97.09
2017-08-12T04:02:51.911Z,97.03
2017-08-12T04:05:26.636Z,96.92
2017-08-12T04:08:01.842Z,97.02
2017-08-12T04:10:36.399Z,96.94
2017-08-12T04:13:11.023Z,97.19
2017-08-12T04:15:46.691Z,97.38
2017-08-12T04:18:21.379Z,97.54
2017-08-12T04:20:56.180Z,97.63
2017-08-12T04:23:30.587Z,97.79
2017-08-12T04:26:05.240Z,98.19
2017-08-12T04:28:39.967Z,98.29
2017-08-12T04:31:14.643Z,98.30
2017-08-12T04:33:49.347Z,98.50
2017-08-12T04:36:24.108Z,98.50
2017-08-12T04:38:58.631Z,98.66
2017-08-12T04:41:33.182Z,98.68
2017-08-12T04:44:07.872Z,98.75
2017-08-12T04:46:42.615Z,98.84
2017-08-12T04:49:17.419Z,98.92
2017-08-12T04:51:52.067Z,98.94
2017-08-12T04:54:26.708Z,99.09
2017-08-12T04:57:01.275Z,98.92
2017-08-12T04:59:36.139Z,98.95
2017-08-12T05:02:10.819Z,98.82
2017-08-12T05:04:45.395Z,98.36
2017-08-12T05:07:20.172Z,97.64
2017-08-12T05:09:54.752Z,97.12
2017-08-12T05:12:30.519Z,96.87
2017-08-12T05:15:05.259Z,96.84
2017-08-12T05:17:40.136Z,96.88
2017-08-12T05:20:15.910Z,96.73
2017-08-12T05:22:50.540Z,96.73
2017-08-12T05:25:25.276Z,96.89
2017-08-12T05:27:59.891Z,96.85
2017-08-12T05:30:34.475Z,96.49
2017-08-12T05:33:09.129Z,96.35
2017-08-12T05:35:43.782Z,96.51
2017-08-12T05:38:19.090Z,96.78
2017-08-12T05:40:54.039Z,97.07
2017-08-12T05:43:28.888Z,97.14
2017-08-12T05:46:03.495Z,96.83
2017-08-12T05:48:38.367Z,96.50
2017-08-12T05:51:13.199Z,96.53
2017-08-12T05:53:48.067Z,96.45
2017-08-12T05:56:22.683Z,96.46
2017-08-12T05:58:57.459Z,96.60
2017-08-12T06:01:32.219Z,96.63
2017-08-12T06:04:06.839Z,97.05
2017-08-12T06:06:41.755Z,96.94
2017-08-12T06:09:16.471Z,96.71
2017-08-12T06:11:51.231Z,96.45
2017-08-12T06:14:25.964Z,96.07
2017-08-12T06:17:00.583Z,96.03
2017-08-12T06:19:36.179Z,96.05
2017-08-12T06:22:10.994Z,96.00
2017-08-12T06:24:45.724Z,95.81
2017-08-12T06:27:21.364Z,95.90
2017-08-12T06:29:56.023Z,95.88
2017-08-12T06:32:30.692Z,95.90
2017-08-12T06:35:05.500Z,96.05
2017-08-12T06:37:40.036Z,96.07
2017-08-12T06:40:14.727Z,95.85
2017-08-12T06:42:49.344Z,95.76
2017-08-12T06:45:23.963Z,96.28
2017-08-12T06:47:58.575Z,95.92
2017-08-12T06:50:32.979Z,95.99
2017-08-12T06:53:07.627Z,95.85
2017-08-12T06:55:42.295Z,95.61
2017-08-12T06:58:18.164Z,95.82
2017-08-12T07:00:52.751Z,95.36
2017-08-12T07:03:27.659Z,95.52
2017-08-12T07:06:02.244Z,94.96
2017-08-12T07:08:37.096Z,95.19
2017-08-12T07:11:11.766Z,95.47
2017-08-12T07:13:46.391Z,95.32
2017-08-12T07:16:21.980Z,95.99
2017-08-12T07:18:56.644Z,95.59
2017-08-12T07:21:31.259Z,95.55
2017-08-12T07:24:06.094Z,95.41
2017-08-12T07:26:41.881Z,95.70
2017-08-12T07:29:16.462Z,95.57
2017-08-12T07:31:51.276Z,95.51
2017-08-12T07:34:25.931Z,95.00
2017-08-12T07:37:00.523Z,95.40
2017-08-12T07:39:36.315Z,95.56
2017-08-12T07:42:10.835Z,95.40
2017-08-12T07:44:45.359Z,95.77
2017-08-12T07:47:20.166Z,95.58
2017-08-12T07:49:56.035Z,95.82
2017-08-12T07:52:30.752Z,95.84
2017-08-12T07:55:05.271Z,96.20
2017-08-12T07:57:39.884Z,96.14
2017-08-12T08:00:14.196Z,96.06
2017-08-12T08:02:49.259Z,95.82
2017-08-12T08:05:23.880Z,95.86
2017-08-12T08:07:58.695Z,95.76
2017-08-12T08:10:33.487Z,95.77
2017-08-12T08:13:08.104Z,95.61
2017-08-12T08:15:42.816Z,95.95
2017-08-12T08:18:17.403Z,96.21
2017-08-12T08:20:53.228Z,96.23
2017-08-12T08:23:27.848Z,95.68
2017-08-12T08:26:02.456Z,95.51
2017-08-12T08:28:37.176Z,96.04
2017-08-12T08:31:11.896Z,95.88
2017-08-12T08:33:46.623Z,95.84
2017-08-12T08:36:21.328Z,95.84
2017-08-12T08:38:56.279Z,95.67
2017-08-12T08:41:30.853Z,95.77
2017-08-12T08:44:05.822Z,95.87
2017-08-12T08:46:40.422Z,95.91
2017-08-12T08:49:14.891Z,95.80
2017-08-12T08:51:49.439Z,96.08
2017-08-12T08:54:23.956Z,96.08
2017-08-12T08:56:58.700Z,96.66
2017-08-12T08:59:34.508Z,96.12
2017-08-12T09:02:09.256Z,96.37
2017-08-12T09:04:43.767Z,95.48
2017-08-12T09:07:18.760Z,95.75
2017-08-12T09:09:54.047Z,95.75
2017-08-12T09:12:28.456Z,95.83
2017-08-12T09:15:04.060Z,95.76
2017-08-12T09:17:39.105Z,95.10
2017-08-12T09:20:14.911Z,94.81
2017-08-12T09:22:49.535Z,95.45
2017-08-12T09:25:24.250Z,95.78
2017-08-12T09:27:59.097Z,95.91
2017-08-12T09:30:33.732Z,95.66
2017-08-12T09:33:08.428Z,95.79
2017-08-12T09:35:43.224Z,96.01
2017-08-12T09:38:17.899Z,95.66
2017-08-12T09:40:52.715Z,96.24
2017-08-12T09:43:27.375Z,96.26
2017-08-12T09:46:02.107Z,96.55
2017-08-12T09:48:36.763Z,97.01
2017-08-12T09:51:11.499Z,96.91
2017-08-12T09:53:46.373Z,96.67
2017-08-12T09:56:21.211Z,97.38
2017-08-12T09:58:55.780Z,97.26
2017-08-12T10:01:30.339Z,97.13
2017-08-12T10:04:05.606Z,97.34
2017-08-12T10:06:40.646Z,97.15
2017-08-12T10:09:15.415Z,96.97
2017-08-12T10:11:50.231Z,97.68
2017-08-12T10:14:24.955Z,97.54
2017-08-12T10:16:59.782Z,97.50
2017-08-12T10:19:34.483Z,97.48
2017-08-12T10:22:09.284Z,97.74
2017-08-12T10:24:44.067Z,97.52
2017-08-12T10:27:18.771Z,97.81
2017-08-12T10:29:53.539Z,97.73
2017-08-12T10:32:28.336Z,97.51
2017-08-12T10:35:03.060Z,97.09
2017-08-12T10:37:38.147Z,97.22
2017-08-12T10:40:13.431Z,96.79
2017-08-12T10:42:48.267Z,96.85
2017-08-12T10:45:23.020Z,97.13
2017-08-12T10:47:58.804Z,97.26
2017-08-12T10:50:33.495Z,96.76
2017-08-12T10:53:08.232Z,96.98
2017-08-12T10:55:42.827Z,97.06
2017-08-12T10:58:17.718Z,97.02
2017-08-12T11:00:53.506Z,97.01
2017-08-12T11:03:28.200Z,96.59
2017-08-12T11:06:02.915Z,96.42
2017-08-12T11:08:37.727Z,96.85
2017-08-12T11:11:12.456Z,96.79
2017-08-12T11:13:47.168Z,96.93
2017-08-12T11:16:21.879Z,96.92
2017-08-12T11:18:56.645Z,96.93
2017-08-12T11:21:31.367Z,97.13
2017-08-12T11:24:06.139Z,97.11
2017-08-12T11:26:40.710Z,96.93
2017-08-12T11:29:15.307Z,97.23
2017-08-12T11:31:49.952Z,97.29
2017-08-12T11:34:24.838Z,97.81
2017-08-12T11:36:59.463Z,96.92
2017-08-12T11:39:33.928Z,97.34
2017-08-12T11:42:09.005Z,97.28
2017-08-12T11:44:43.704Z,96.99
2017-08-12T11:47:18.425Z,96.97
2017-08-12T11:49:53.183Z,97.00
2017-08-12T11:52:27.699Z,97.00
2017-08-12T11:55:03.441Z,97.20
2017-08-12T11:57:39.159Z,96.65
2017-08-12T12:00:14.016Z,96.68
2017-08-12T12:02:48.644Z,96.80
2017-08-12T12:05:24.299Z,96.58
2017-08-12T12:07:59.943Z,96.94
2017-08-12T12:10:34.556Z,97.28
2017-08-12T12:13:09.174Z,96.62
2017-08-12T12:15:43.911Z,97.26
2017-08-12T12:18:18.576Z,96.96
2017-08-12T12:20:54.239Z,97.21
2017-08-12T12:23:28.788Z,97.02
2017-08-12T12:26:04.370Z,96.77
2017-08-12T12:28:39.004Z,97.16
2017-08-12T12:31:13.763Z,97.09
2017-08-12T12:33:48.641Z,97.09
2017-08-12T12:36:24.307Z,96.75
2017-08-12T12:38:58.831Z,96.62
2017-08-12T12:41:33.723Z,96.73
2017-08-12T12:44:07.957Z,96.76
2017-08-12T12:46:42.750Z,96.62
2017-08-12T12:49:17.423Z,97.10
2017-08-12T12:51:51.955Z,97.42
2017-08-12T12:54:26.752Z,97.04
2017-08-12T12:57:01.367Z,96.77
2017-08-12T12:59:37.025Z,97.07
2017-08-12T13:02:11.963Z,97.05
2017-08-12T13:04:46.371Z,97.05
2017-08-12T13:07:21.358Z,97.06
2017-08-12T13:09:56.203Z,96.53
2017-08-12T13:12:31.039Z,96.39
2017-08-12T13:15:05.807Z,96.48
2017-08-12T13:17:41.488Z,96.57
2017-08-12T13:20:16.263Z,96.72
2017-08-12T13:22:51.083Z,96.65
2017-08-12T13:25:25.948Z,96.31
2017-08-12T13:28:00.817Z,96.28
2017-08-12T13:30:35.535Z,95.46
2017-08-12T13:33:10.390Z,95.13
2017-08-12T13:35:45.223Z,95.27
2017-08-12T13:38:19.927Z,95.06
2017-08-12T13:40:54.552Z,95.02
2017-08-12T13:43:29.432Z,95.19
2017-08-12T13:46:04.051Z,95.76
2017-08-12T13:48:38.895Z,95.85
2017-08-12T13:51:13.638Z,96.18
2017-08-12T13:53:48.327Z,96.39
2017-08-12T13:56:23.072Z,96.46
2017-08-12T13:58:57.779Z,96.23
2017-08-12T14:01:32.340Z,96.05
2017-08-12T14:04:07.131Z,95.61
2017-08-12T14:06:41.556Z,95.99
2017-08-12T14:09:16.596Z,95.65
2017-08-12T14:11:51.267Z,95.55
2017-08-12T14:14:25.880Z,96.03
2017-08-12T14:17:00.673Z,95.58
2017-08-12T14:19:35.306Z,95.19
2017-08-12T14:22:10.096Z,95.44
2017-08-12T14:24:44.883Z,95.60
2017-08-12T14:27:19.709Z,94.60
2017-08-12T14:29:55.419Z,94.62
2017-08-12T14:32:30.438Z,94.61
2017-08-12T14:35:04.810Z,94.98
2017-08-12T14:37:39.847Z,94.90
2017-08-12T14:40:14.607Z,94.47
2017-08-12T14:42:49.311Z,94.51
2017-08-12T14:45:24.111Z,94.82
2017-08-12T14:48:00.004Z,95.09
2017-08-12T14:50:34.719Z,94.60
2017-08-12T14:53:09.428Z,93.93
2017-08-12T14:55:44.088Z,94.15
2017-08-12T14:58:18.750Z,94.49
2017-08-12T15:00:53.364Z,94.13
2017-08-12T15:03:28.164Z,94.00
2017-08-12T15:06:02.866Z,93.86
2017-08-12T15:08:38.678Z,93.31
2017-08-12T15:11:13.291Z,93.14
2017-08-12T15:13:48.011Z,93.55
2017-08-12T15:16:22.496Z,92.69
2017-08-12T15:18:57.295Z,92.40
2017-08-12T15:21:31.699Z,90.63
2017-08-12T15:24:07.518Z,90.94
2017-08-12T15:26:42.339Z,91.53
2017-08-12T15:29:17.084Z,90.74
2017-08-12T15:31:51.691Z,90.56
2017-08-12T15:34:26.343Z,90.63
2017-08-12T15:37:01.076Z,89.70
2017-08-12T15:39:36.797Z,89.92
2017-08-12T15:42:11.510Z,90.89
2017-08-12T15:44:46.126Z,89.71
2017-08-12T15:47:20.767Z,90.76
2017-08-12T15:49:56.431Z,89.23
2017-08-12T15:52:31.147Z,88.89
2017-08-12T15:55:05.894Z,89.82
2017-08-12T15:57:40.707Z,89.18
2017-08-12T16:00:15.356Z,88.59
2017-08-12T16:02:50.087Z,87.94
2017-08-12T16:05:24.831Z,88.46
2017-08-12T16:07:59.839Z,87.96
2017-08-12T16:10:35.187Z,87.80
2017-08-12T16:13:10.953Z,86.76
2017-08-12T16:15:46.623Z,87.20
2017-08-12T16:18:21.390Z,86.70
2017-08-12T16:20:56.050Z,86.68
2017-08-12T16:23:31.695Z,87.10
2017-08-12T16:26:06.436Z,87.08
2017-08-12T16:28:42.100Z,87.04
2017-08-12T16:31:16.715Z,87.36
2017-08-12T16:33:51.580Z,86.85
2017-08-12T16:36:26.363Z,86.80
2017-08-12T16:39:01.907Z,87.08
2017-08-12T16:41:37.011Z,87.09
2017-08-12T16:44:11.503Z,87.43
2017-08-12T16:46:46.194Z,86.54
2017-08-12T16:49:20.844Z,87.00
2017-08-12T16:51:55.372Z,86.34
2017-08-12T16:54:30.471Z,86.71
2017-08-12T16:57:05.620Z,87.00
2017-08-12T16:59:40.355Z,87.26
2017-08-12T17:02:21.095Z,87.65
2017-08-12T17:04:55.547Z,88.62
2017-08-12T17:07:30.312Z,88.85
2017-08-12T17:10:05.045Z,88.80
2017-08-12T17:12:40.777Z,88.93
2017-08-12T17:15:15.500Z,89.26
2017-08-12T17:17:50.028Z,89.44
2017-08-12T17:20:24.675Z,89.67
2017-08-12T17:22:59.392Z,89.57
2017-08-12T17:25:34.136Z,90.04
2017-08-12T17:28:08.648Z,90.35
2017-08-12T17:30:43.411Z,90.53
2017-08-12T17:33:18.081Z,90.85
2017-08-12T17:35:52.840Z,91.54
2017-08-12T17:38:27.920Z,91.46
2017-08-12T17:41:03.195Z,91.40
2017-08-12T17:43:37.920Z,91.91
2017-08-12T17:46:12.795Z,91.58
2017-08-12T17:48:47.650Z,91.98
2017-08-12T17:51:22.278Z,91.85
2017-08-12T17:53:57.079Z,91.74
2017-08-12T17:56:31.875Z,91.69
2017-08-12T17:59:06.615Z,91.74
2017-08-12T18:01:41.587Z,91.69
2017-08-12T18:04:16.270Z,91.99
2017-08-12T18:06:50.995Z,91.91
2017-08-12T18:09:25.805Z,91.96
2017-08-12T18:12:00.623Z,91.74
2017-08-12T18:14:35.393Z,91.75
2017-08-12T18:17:10.260Z,91.89
2017-08-12T18:19:44.930Z,91.98
2017-08-12T18:22:19.659Z,91.70
2017-08-12T18:24:54.519Z,91.94
2017-08-12T18:27:29.365Z,91.72
2017-08-12T18:30:03.976Z,91.75
2017-08-12T18:32:38.940Z,91.74
2017-08-12T18:35:13.685Z,92.14
2017-08-12T18:37:48.507Z,92.16
2017-08-12T18:40:23.232Z,92.10
2017-08-12T18:42:57.992Z,92.29
2017-08-12T18:45:32.660Z,92.22
2017-08-12T18:48:07.284Z,91.98
2017-08-12T18:50:43.039Z,92.06
2017-08-12T18:53:17.895Z,92.44
2017-08-12T18:55:52.670Z,92.50
2017-08-12T18:58:28.583Z,92.21
2017-08-12T19:01:03.375Z,92.07
2017-08-12T19:03:38.026Z,92.28
2017-08-12T19:06:12.855Z,92.26
2017-08-12T19:08:47.630Z,92.62
2017-08-12T19:11:22.367Z,92.39
2017-08-12T19:13:58.560Z,92.35
2017-08-12T19:16:33.901Z,92.72
2017-08-12T19:19:08.458Z,92.81
2017-08-12T19:21:43.297Z,92.94
2017-08-12T19:24:19.099Z,93.16
2017-08-12T19:26:53.976Z,93.02
2017-08-12T19:29:28.706Z,93.04
2017-08-12T19:32:04.608Z,92.94
2017-08-12T19:34:40.479Z,92.98
2017-08-12T19:37:15.267Z,93.11
2017-08-12T19:39:50.046Z,93.27
2017-08-12T19:42:24.827Z,93.44
2017-08-12T19:44:59.600Z,93.70
2017-08-12T19:47:34.437Z,93.72
2017-08-12T19:50:10.279Z,93.80
2017-08-12T19:52:46.236Z,93.64
2017-08-12T19:55:21.168Z,93.50
2017-08-12T19:57:56.818Z,93.43
2017-08-12T20:00:31.567Z,93.61
2017-08-12T20:03:06.387Z,93.83
2017-08-12T20:05:42.155Z,93.91
2017-08-12T20:08:16.731Z,93.74
2017-08-12T20:10:51.503Z,93.77
2017-08-12T20:13:26.317Z,93.71
2017-08-12T20:16:01.011Z,93.65
2017-08-12T20:18:35.772Z,93.86
2017-08-12T20:21:10.149Z,93.74
2017-08-12T20:23:45.239Z,93.66
2017-08-12T20:26:20.011Z,93.69
2017-08-12T20:28:54.711Z,93.90
2017-08-12T20:31:29.518Z,93.85
2017-08-12T20:34:04.343Z,93.47
2017-08-12T20:36:39.971Z,93.22
2017-08-12T20:39:14.876Z,92.94
2017-08-12T20:41:49.727Z,92.46
2017-08-12T20:44:24.517Z,92.14
2017-08-12T20:46:59.331Z,92.08
2017-08-12T20:49:34.038Z,92.26
2017-08-12T20:52:08.991Z,91.97
2017-08-12T20:54:43.694Z,92.24
2017-08-12T20:57:18.448Z,92.50
2017-08-12T20:59:53.188Z,92.77
2017-08-12T21:02:27.860Z,93.06
2017-08-12T21:05:02.720Z,93.28
2017-08-12T21:07:38.559Z,93.68
2017-08-12T21:10:13.299Z,93.55
2017-08-12T21:12:47.915Z,93.35
2017-08-12T21:15:22.327Z,93.29
2017-08-12T21:17:57.405Z,93.62
2017-08-12T21:20:32.048Z,93.62
2017-08-12T21:23:07.684Z,93.60
2017-08-12T21:25:42.407Z,93.56
2017-08-12T21:28:19.176Z,93.48
2017-08-12T21:30:53.799Z,93.60
2017-08-12T21:33:28.556Z,94.12
2017-08-12T21:36:03.356Z,93.99
2017-08-12T21:38:38.141Z,93.86
2017-08-12T21:41:12.821Z,94.25
2017-08-12T21:43:47.584Z,93.74
2017-08-12T21:46:22.471Z,93.63
2017-08-12T21:48:57.243Z,93.55
2017-08-12T21:51:33.096Z,93.81
2017-08-12T21:54:08.652Z,93.53
2017-08-12T21:56:43.356Z,93.78
2017-08-12T21:59:18.140Z,93.34
2017-08-12T22:01:52.915Z,92.95
2017-08-12T22:04:27.752Z,92.45
2017-08-12T22:07:02.552Z,92.26
2017-08-12T22:09:37.276Z,92.01
2017-08-12T22:12:11.899Z,91.55
2017-08-12T22:14:46.663Z,91.12
2017-08-12T22:17:22.407Z,90.98
2017-08-12T22:19:57.167Z,90.91
2017-08-12T22:22:31.870Z,91.01
2017-08-12T22:25:06.628Z,90.93
2017-08-12T22:27:41.319Z,91.46
2017-08-12T22:30:17.113Z,91.95
2017-08-12T22:32:51.727Z,92.08
2017-08-12T22:35:26.476Z,91.41
2017-08-12T22:38:01.216Z,91.10
2017-08-12T22:40:35.936Z,90.51
2017-08-12T22:43:10.857Z,89.76
2017-08-12T22:45:45.606Z,90.40
2017-08-12T22:48:20.462Z,90.87
2017-08-12T22:50:55.175Z,89.12
2017-08-12T22:53:30.195Z,89.03
2017-08-12T22:56:04.739Z,88.87
2017-08-12T22:58:39.263Z,89.08
2017-08-12T23:01:13.983Z,88.46
2017-08-12T23:03:48.663Z,87.10
2017-08-12T23:06:23.316Z,87.48
2017-08-12T23:08:58.190Z,86.68
2017-08-12T23:11:32.815Z,86.90
2017-08-12T23:14:07.523Z,87.50
2017-08-12T23:16:42.187Z,87.03
2017-08-12T23:19:16.812Z,87.04
2017-08-12T23:21:51.356Z,86.98
2017-08-12T23:24:26.067Z,86.51
2017-08-12T23:27:00.762Z,86.74
2017-08-12T23:29:35.448Z,87.37
2017-08-12T23:32:10.170Z,87.13
2017-08-12T23:34:44.680Z,86.53
2017-08-12T23:37:19.291Z,87.00
2017-08-12T23:39:53.812Z,87.15
2017-08-12T23:42:28.435Z,87.14
2017-08-12T23:45:03.067Z,85.91
2017-08-12T23:47:37.907Z,86.85
2017-08-12T23:50:12.627Z,87.58
2017-08-12T23:52:47.487Z,87.88
2017-08-12T23:55:22.136Z,87.91
2017-08-12T23:57:56.933Z,88.02
